createdAt,value
2022-11-12T00:01:04.053Z,9.04
2022-11-12T00:03:33.626Z,9.02
2022-11-12T00:06:01.791Z,9.00
2022-11-12T00:08:30.495Z,9.00
2022-11-12T00:10:58.870Z,9.12
2022-11-12T00:13:27.111Z,9.04
2022-11-12T00:15:55.611Z,9.01
2022-11-12T00:18:24.051Z,9.00
2022-11-12T00:20:53.890Z,9.01
2022-11-12T00:23:22.090Z,8.99
2022-11-12T00:25:51.396Z,9.03
2022-11-12T00:28:19.572Z,9.04
2022-11-12T00:30:47.775Z,9.01
2022-11-12T00:33:15.962Z,8.97
2022-11-12T00:35:44.171Z,8.99
2022-11-12T00:38:13.763Z,8.97
2022-11-12T00:40:42.981Z,9.00
2022-11-12T00:43:11.194Z,9.04
2022-11-12T00:45:39.414Z,9.01
2022-11-12T00:48:07.831Z,9.00
2022-11-12T00:50:36.014Z,9.02
2022-11-12T00:53:04.277Z,8.99
2022-11-12T00:55:34.126Z,9.04
2022-11-12T00:58:02.344Z,9.05
2022-11-12T01:00:30.569Z,9.16
2022-11-12T01:02:58.803Z,9.05
2022-11-12T01:08:13.346Z,9.03
2022-11-12T01:10:42.939Z,9.06
2022-11-12T01:13:11.420Z,9.06
2022-11-12T01:18:28.318Z,9.04
2022-11-12T01:20:57.556Z,9.09
2022-11-12T01:23:25.772Z,9.07
2022-11-12T01:25:55.355Z,9.10
2022-11-12T01:28:23.701Z,9.08
2022-11-12T01:30:52.032Z,9.18
2022-11-12T01:33:20.671Z,9.11
2022-11-12T01:35:48.886Z,9.27
2022-11-12T01:38:17.094Z,9.13
2022-11-12T01:40:45.280Z,9.24
2022-11-12T01:43:16.582Z,9.20
2022-11-12T01:45:46.010Z,9.26
2022-11-12T01:48:15.027Z,9.23
2022-11-12T01:50:44.842Z,9.29
2022-11-12T01:53:13.117Z,9.29
2022-11-12T01:55:41.309Z,9.25
2022-11-12T01:58:10.955Z,9.14
2022-11-12T02:00:40.564Z,9.09
2022-11-12T02:03:12.290Z,9.06
2022-11-12T02:05:40.551Z,9.06
2022-11-12T02:08:11.201Z,9.21
2022-11-12T02:10:39.934Z,9.11
2022-11-12T02:13:22.207Z,9.08
2022-11-12T02:15:51.787Z,9.01
2022-11-12T02:18:19.972Z,9.01
2022-11-12T02:20:54.924Z,9.06
2022-11-12T02:23:24.500Z,9.06
2022-11-12T02:25:56.137Z,9.06
2022-11-12T02:28:28.653Z,9.12
2022-11-12T02:30:57.398Z,9.18
2022-11-12T02:33:25.596Z,9.19
2022-11-12T02:35:54.089Z,9.07
2022-11-12T02:38:22.327Z,9.19
2022-11-12T02:40:52.039Z,9.14
2022-11-12T02:43:20.289Z,9.08
2022-11-12T02:45:48.749Z,9.04
2022-11-12T02:48:19.331Z,9.07
2022-11-12T02:50:48.818Z,9.14
2022-11-12T02:53:17.371Z,9.12
2022-11-12T02:55:45.602Z,9.12
2022-11-12T02:58:15.169Z,9.28
2022-11-12T03:00:43.726Z,9.17
2022-11-12T03:03:11.956Z,9.27
2022-11-12T03:05:40.163Z,9.33
2022-11-12T03:08:09.483Z,9.36
2022-11-12T03:10:38.505Z,9.40
2022-11-12T03:13:06.780Z,9.34
2022-11-12T03:15:36.339Z,9.34
2022-11-12T03:18:04.933Z,9.31
2022-11-12T03:20:34.906Z,9.25
2022-11-12T03:23:05.465Z,9.29
2022-11-12T03:25:33.677Z,9.24
2022-11-12T03:28:02.876Z,9.28
2022-11-12T03:30:32.031Z,9.22
2022-11-12T03:33:01.591Z,9.22
2022-11-12T03:35:30.088Z,9.06
2022-11-12T03:37:58.797Z,9.09
2022-11-12T03:40:27.039Z,8.96
2022-11-12T03:42:55.256Z,9.09
2022-11-12T03:45:24.761Z,9.04
2022-11-12T03:47:54.073Z,8.98
2022-11-12T03:50:24.379Z,9.16
2022-11-12T03:52:53.310Z,9.15
2022-11-12T03:55:22.689Z,9.13
2022-11-12T03:57:51.215Z,9.09
2022-11-12T04:00:19.915Z,9.13
2022-11-12T04:02:48.155Z,9.06
2022-11-12T04:05:30.424Z,9.13
2022-11-12T04:08:14.532Z,9.12
2022-11-12T04:10:42.721Z,9.05
2022-11-12T04:13:24.721Z,9.11
2022-11-12T04:16:13.571Z,9.15
2022-11-12T04:18:55.638Z,8.98
2022-11-12T04:21:45.720Z,9.10
2022-11-12T04:24:35.343Z,9.08
2022-11-12T04:27:03.570Z,8.99
2022-11-12T04:29:45.876Z,9.08
2022-11-12T04:32:14.076Z,9.05
2022-11-12T04:34:42.320Z,9.07
2022-11-12T04:37:10.550Z,8.99
2022-11-12T04:39:40.210Z,8.99
2022-11-12T04:42:24.022Z,9.10
2022-11-12T04:45:01.539Z,9.13
2022-11-12T04:47:31.904Z,9.17
2022-11-12T04:50:00.124Z,9.15
2022-11-12T04:52:28.531Z,9.12
2022-11-12T04:54:58.527Z,9.14
2022-11-12T04:57:26.990Z,9.17
2022-11-12T04:59:55.292Z,9.13
2022-11-12T05:02:23.604Z,9.12
2022-11-12T05:04:52.082Z,9.08
2022-11-12T05:07:20.319Z,9.07
2022-11-12T05:09:48.561Z,9.14
2022-11-12T05:12:18.145Z,9.12
2022-11-12T05:14:46.358Z,9.11
2022-11-12T05:17:15.989Z,9.09
2022-11-12T05:19:46.669Z,9.11
2022-11-12T05:22:40.211Z,9.04
2022-11-12T05:25:03.136Z,9.14
2022-11-12T05:27:32.731Z,9.18
2022-11-12T05:30:00.994Z,9.20
2022-11-12T05:32:29.176Z,9.11
2022-11-12T05:34:57.380Z,9.13
2022-11-12T05:37:25.562Z,9.23
2022-11-12T05:39:54.049Z,9.20
2022-11-12T05:42:22.239Z,9.21
2022-11-12T05:44:51.827Z,9.27
2022-11-12T05:47:20.300Z,9.27
2022-11-12T05:49:48.508Z,9.26
2022-11-12T05:52:16.731Z,9.33
2022-11-12T05:54:44.934Z,9.32
2022-11-12T05:57:13.426Z,9.32
2022-11-12T05:59:41.635Z,9.39
2022-11-12T06:02:11.269Z,9.45
2022-11-12T06:04:39.540Z,9.43
2022-11-12T06:07:07.820Z,9.42
2022-11-12T06:09:36.076Z,9.45
2022-11-12T06:12:06.932Z,9.48
2022-11-12T06:14:35.179Z,9.46
2022-11-12T06:17:03.444Z,9.49
2022-11-12T06:19:33.063Z,9.55
2022-11-12T06:22:01.563Z,9.57
2022-11-12T06:24:34.996Z,9.60
2022-11-12T06:27:03.855Z,9.57
2022-11-12T06:29:32.343Z,9.52
2022-11-12T06:32:00.553Z,9.62
2022-11-12T06:34:28.768Z,9.58
2022-11-12T06:36:58.636Z,9.67
2022-11-12T06:39:26.863Z,9.67
2022-11-12T06:41:55.081Z,9.69
2022-11-12T06:44:23.338Z,9.69
2022-11-12T06:46:51.873Z,9.70
2022-11-12T06:49:20.098Z,9.64
2022-11-12T06:51:48.286Z,9.71
2022-11-12T06:54:17.916Z,9.72
2022-11-12T06:56:46.140Z,9.69
2022-11-12T06:59:14.368Z,9.74
2022-11-12T07:01:42.630Z,9.74
2022-11-12T07:04:11.036Z,9.75
2022-11-12T07:06:39.323Z,9.79
2022-11-12T07:09:07.583Z,9.77
2022-11-12T07:11:37.321Z,9.80
2022-11-12T07:14:06.951Z,9.83
2022-11-12T07:16:35.195Z,9.88
2022-11-12T07:19:03.438Z,9.85
2022-11-12T07:21:33.301Z,9.91
2022-11-12T07:24:01.492Z,9.98
2022-11-12T07:26:29.722Z,9.96
2022-11-12T07:28:59.591Z,9.96
2022-11-12T07:31:27.794Z,9.99
2022-11-12T07:33:56.019Z,9.99
2022-11-12T07:36:24.208Z,10.05
2022-11-12T07:38:53.167Z,9.94
2022-11-12T07:41:22.058Z,9.93
2022-11-12T07:43:51.069Z,10.02
2022-11-12T07:46:23.137Z,10.01
2022-11-12T07:48:54.758Z,10.04
2022-11-12T07:51:26.531Z,10.25
2022-11-12T07:53:59.252Z,10.29
2022-11-12T07:56:28.052Z,10.36
2022-11-12T07:58:56.409Z,10.32
2022-11-12T08:01:32.043Z,10.39
2022-11-12T08:04:00.371Z,10.44
2022-11-12T08:06:30.918Z,10.55
2022-11-12T08:09:02.556Z,10.65
2022-11-12T08:11:30.844Z,10.67
2022-11-12T08:13:59.062Z,10.69
2022-11-12T08:16:28.653Z,10.73
2022-11-12T08:18:57.151Z,10.83
2022-11-12T08:21:25.397Z,10.96
2022-11-12T08:23:53.671Z,10.96
2022-11-12T08:26:22.089Z,11.03
2022-11-12T08:28:50.373Z,11.02
2022-11-12T08:31:19.386Z,11.08
2022-11-12T08:33:48.973Z,11.18
2022-11-12T08:36:17.941Z,11.31
2022-11-12T08:38:46.801Z,11.38
2022-11-12T08:41:16.491Z,11.34
2022-11-12T08:43:44.763Z,11.44
2022-11-12T08:46:12.996Z,11.48
2022-11-12T08:48:41.317Z,11.50
2022-11-12T08:51:11.752Z,11.54
2022-11-12T08:53:39.937Z,11.65
2022-11-12T08:56:08.586Z,11.66
2022-11-12T08:58:36.797Z,11.73
2022-11-12T09:01:06.152Z,11.84
2022-11-12T09:03:34.626Z,11.86
2022-11-12T09:06:04.235Z,11.97
2022-11-12T09:08:34.722Z,12.02
2022-11-12T09:11:04.026Z,12.16
2022-11-12T09:13:33.750Z,12.17
2022-11-12T09:16:03.799Z,12.40
2022-11-12T09:18:32.522Z,12.38
2022-11-12T09:21:02.213Z,12.43
2022-11-12T09:23:30.478Z,12.48
2022-11-12T09:26:00.127Z,12.56
2022-11-12T09:28:28.569Z,12.65
2022-11-12T09:30:57.069Z,12.57
2022-11-12T09:33:26.170Z,12.72
2022-11-12T09:35:54.772Z,12.75
2022-11-12T09:38:23.559Z,12.66
2022-11-12T09:41:05.027Z,12.86
2022-11-12T09:43:34.059Z,12.87
2022-11-12T09:46:26.739Z,13.13
2022-11-12T09:49:08.153Z,13.14
2022-11-12T09:52:03.029Z,13.24
2022-11-12T09:54:33.227Z,13.27
2022-11-12T09:57:02.991Z,13.39
2022-11-12T09:59:32.985Z,13.38
2022-11-12T10:02:08.870Z,13.48
2022-11-12T10:04:49.032Z,13.66
2022-11-12T10:07:22.166Z,13.66
2022-11-12T10:09:56.429Z,13.51
2022-11-12T10:12:33.810Z,13.65
2022-11-12T10:15:35.369Z,13.65
2022-11-12T10:18:06.362Z,13.61
2022-11-12T10:20:38.903Z,13.66
2022-11-12T10:23:21.568Z,13.94
2022-11-12T10:25:56.889Z,13.95
2022-11-12T10:28:34.341Z,14.19
2022-11-12T10:31:10.636Z,14.08
2022-11-12T10:33:38.936Z,14.17
2022-11-12T10:36:20.200Z,14.46
2022-11-12T10:38:50.178Z,14.54
2022-11-12T10:41:20.906Z,14.19
2022-11-12T10:43:57.102Z,14.39
2022-11-12T10:46:26.216Z,14.29
2022-11-12T10:48:57.500Z,14.20
2022-11-12T10:51:28.129Z,14.48
2022-11-12T10:53:56.400Z,14.41
2022-11-12T10:56:29.440Z,14.21
2022-11-12T10:59:12.639Z,14.16
2022-11-12T11:01:45.548Z,14.31
2022-11-12T11:04:18.826Z,14.49
2022-11-12T11:06:47.076Z,14.24
2022-11-12T11:09:17.894Z,14.39
2022-11-12T11:11:51.810Z,14.69
2022-11-12T11:14:29.534Z,14.54
2022-11-12T11:16:59.536Z,14.63
2022-11-12T11:19:34.681Z,14.89
2022-11-12T11:22:08.406Z,14.79
2022-11-12T11:24:38.417Z,14.65
2022-11-12T11:27:10.199Z,14.98
2022-11-12T11:29:47.146Z,14.89
2022-11-12T11:32:55.854Z,14.73
2022-11-12T11:35:30.715Z,14.87
2022-11-12T11:38:10.323Z,14.79
2022-11-12T11:40:41.432Z,14.87
2022-11-12T11:43:24.948Z,14.83
2022-11-12T11:46:04.983Z,14.85
2022-11-12T11:48:39.932Z,15.07
2022-11-12T11:51:11.674Z,15.22
2022-11-12T11:53:42.472Z,14.87
2022-11-12T11:56:12.725Z,15.13
2022-11-12T11:58:55.588Z,15.12
2022-11-12T12:01:27.806Z,15.14
2022-11-12T12:04:05.197Z,15.25
2022-11-12T12:06:34.225Z,15.39
2022-11-12T12:09:09.075Z,15.37
2022-11-12T12:11:40.568Z,15.51
2022-11-12T12:14:19.822Z,15.46
2022-11-12T12:16:54.803Z,15.42
2022-11-12T12:19:29.624Z,15.62
2022-11-12T12:21:57.858Z,15.73
2022-11-12T12:24:28.583Z,15.77
2022-11-12T12:27:00.660Z,15.63
2022-11-12T12:29:31.883Z,15.67
2022-11-12T12:32:04.064Z,15.69
2022-11-12T12:34:33.414Z,15.81
2022-11-12T12:37:05.197Z,15.69
2022-11-12T12:39:43.581Z,15.60
2022-11-12T12:42:18.577Z,15.75
2022-11-12T12:45:01.631Z,15.88
2022-11-12T12:47:35.281Z,15.82
2022-11-12T12:50:05.143Z,15.69
2022-11-12T12:52:51.904Z,15.63
2022-11-12T12:55:36.033Z,15.82
2022-11-12T12:58:04.291Z,15.69
2022-11-12T13:00:39.916Z,15.90
2022-11-12T13:03:11.184Z,15.92
2022-11-12T13:05:41.076Z,15.95
2022-11-12T13:08:10.769Z,16.12
2022-11-12T13:10:49.120Z,16.26
2022-11-12T13:13:33.313Z,16.06
2022-11-12T13:16:02.597Z,15.84
2022-11-12T13:19:00.263Z,16.03
2022-11-12T13:21:29.029Z,15.95
2022-11-12T13:24:08.892Z,16.02
2022-11-12T13:26:53.922Z,16.00
2022-11-12T13:29:25.749Z,15.84
2022-11-12T13:32:23.462Z,15.81
2022-11-12T13:34:53.400Z,15.82
2022-11-12T13:37:22.984Z,16.03
2022-11-12T13:39:51.544Z,16.03
2022-11-12T13:42:33.632Z,15.93
2022-11-12T13:45:02.202Z,15.80
2022-11-12T13:47:30.455Z,15.94
2022-11-12T13:50:00.934Z,16.15
2022-11-12T13:52:29.263Z,15.99
2022-11-12T13:55:05.508Z,15.99
2022-11-12T13:57:33.885Z,16.16
2022-11-12T14:00:12.214Z,16.12
2022-11-12T14:02:41.591Z,15.95
2022-11-12T14:05:16.669Z,15.73
2022-11-12T14:07:48.527Z,15.73
2022-11-12T14:10:22.782Z,16.05
2022-11-12T14:13:00.444Z,16.04
2022-11-12T14:15:42.420Z,16.10
2022-11-12T14:18:13.966Z,16.12
2022-11-12T14:20:43.569Z,15.86
2022-11-12T14:23:13.391Z,15.76
2022-11-12T14:25:48.369Z,15.98
2022-11-12T14:28:28.311Z,15.98
2022-11-12T14:31:00.987Z,15.82
2022-11-12T14:33:33.921Z,15.84
2022-11-12T14:36:04.726Z,15.78
2022-11-12T14:38:34.169Z,15.71
2022-11-12T14:41:03.550Z,15.75
2022-11-12T14:43:34.085Z,15.55
2022-11-12T14:46:10.090Z,15.57
2022-11-12T14:48:46.812Z,15.66
2022-11-12T14:51:16.515Z,15.63
2022-11-12T14:53:46.469Z,15.50
2022-11-12T14:56:20.352Z,15.45
2022-11-12T14:58:48.616Z,15.44
2022-11-12T15:02:03.999Z,15.34
2022-11-12T15:04:19.246Z,15.34
2022-11-12T15:06:55.031Z,15.26
2022-11-12T15:09:34.390Z,15.09
2022-11-12T15:12:05.229Z,15.07
2022-11-12T15:15:04.134Z,15.03
2022-11-12T15:17:35.980Z,14.85
2022-11-12T15:20:23.206Z,14.79
2022-11-12T15:22:52.802Z,14.74
2022-11-12T15:25:23.151Z,14.70
2022-11-12T15:27:51.601Z,14.55
2022-11-12T15:30:23.758Z,14.52
2022-11-12T15:32:52.140Z,14.46
2022-11-12T15:35:22.893Z,14.41
2022-11-12T15:37:53.143Z,14.40
2022-11-12T15:40:25.423Z,14.27
2022-11-12T15:42:53.849Z,14.30
2022-11-12T15:45:22.647Z,14.22
2022-11-12T15:47:51.132Z,14.11
2022-11-12T15:50:20.237Z,14.05
2022-11-12T15:52:50.812Z,14.02
2022-11-12T15:55:20.394Z,13.96
2022-11-12T15:57:50.194Z,13.84
2022-11-12T16:00:19.754Z,13.81
2022-11-12T16:02:48.408Z,13.67
2022-11-12T16:05:17.082Z,13.62
2022-11-12T16:07:45.365Z,13.65
2022-11-12T16:10:14.592Z,13.60
2022-11-12T16:13:02.583Z,13.52
2022-11-12T16:15:30.887Z,13.51
2022-11-12T16:18:00.312Z,13.41
2022-11-12T16:20:29.544Z,13.43
2022-11-12T16:22:57.729Z,13.38
2022-11-12T16:25:26.450Z,13.32
2022-11-12T16:27:56.626Z,13.15
2022-11-12T16:30:25.918Z,13.22
2022-11-12T16:33:02.744Z,13.21
2022-11-12T16:35:31.239Z,13.16
2022-11-12T16:37:59.547Z,13.16
2022-11-12T16:40:29.693Z,13.08
2022-11-12T16:42:59.692Z,13.11
2022-11-12T16:45:33.940Z,13.15
2022-11-12T16:48:02.183Z,13.06
2022-11-12T16:50:30.493Z,13.07
2022-11-12T16:52:59.094Z,13.05
2022-11-12T16:55:27.308Z,13.03
2022-11-12T16:57:55.544Z,12.93
2022-11-12T17:00:25.302Z,12.89
2022-11-12T17:02:54.995Z,12.86
2022-11-12T17:05:26.716Z,12.78
2022-11-12T17:07:56.885Z,12.70
2022-11-12T17:10:25.594Z,12.67
2022-11-12T17:12:54.085Z,12.69
2022-11-12T17:15:22.388Z,12.58
2022-11-12T17:17:54.217Z,12.54
2022-11-12T17:20:22.473Z,12.46
2022-11-12T17:22:50.654Z,12.36
2022-11-12T17:25:18.984Z,12.50
2022-11-12T17:27:47.468Z,12.51
2022-11-12T17:30:15.852Z,12.52
2022-11-12T17:32:44.067Z,12.52
2022-11-12T17:35:13.661Z,12.51
2022-11-12T17:37:42.122Z,12.43
2022-11-12T17:40:11.080Z,12.49
2022-11-12T17:42:39.273Z,12.50
2022-11-12T17:45:08.582Z,12.45
2022-11-12T17:47:40.583Z,12.54
2022-11-12T17:50:12.152Z,12.56
2022-11-12T17:52:48.357Z,12.63
2022-11-12T17:55:16.743Z,12.61
2022-11-12T17:57:44.966Z,12.64
2022-11-12T18:00:14.279Z,12.72
2022-11-12T18:02:42.505Z,12.81
2022-11-12T18:05:11.134Z,12.76
2022-11-12T18:07:39.325Z,12.84
2022-11-12T18:10:09.298Z,12.89
2022-11-12T18:12:37.570Z,12.94
2022-11-12T18:15:06.305Z,12.99
2022-11-12T18:17:34.867Z,13.03
2022-11-12T18:20:04.124Z,13.01
2022-11-12T18:22:32.347Z,13.04
2022-11-12T18:25:00.583Z,13.07
2022-11-12T18:27:30.167Z,13.00
2022-11-12T18:29:58.530Z,13.11
2022-11-12T18:32:27.036Z,13.12
2022-11-12T18:34:55.587Z,13.01
2022-11-12T18:37:24.134Z,13.03
2022-11-12T18:39:52.526Z,12.99
2022-11-12T18:42:20.798Z,13.02
2022-11-12T18:44:50.382Z,13.01
2022-11-12T18:47:18.571Z,13.15
2022-11-12T18:49:46.782Z,13.07
2022-11-12T18:52:15.062Z,13.05
2022-11-12T18:54:43.250Z,13.09
2022-11-12T18:57:11.460Z,13.10
2022-11-12T18:59:39.730Z,13.10
2022-11-12T19:02:11.265Z,13.03
2022-11-12T19:04:45.052Z,13.06
2022-11-12T19:07:14.070Z,13.23
2022-11-12T19:09:42.425Z,13.08
2022-11-12T19:12:10.953Z,13.15
2022-11-12T19:14:39.159Z,13.09
2022-11-12T19:17:08.754Z,13.16
2022-11-12T19:19:37.114Z,13.12
2022-11-12T19:22:05.400Z,13.16
2022-11-12T19:24:33.708Z,13.16
2022-11-12T19:27:01.980Z,13.04
2022-11-12T19:29:31.139Z,13.07
2022-11-12T19:31:59.463Z,13.06
2022-11-12T19:34:29.961Z,13.13
2022-11-12T19:37:26.626Z,13.09
2022-11-12T19:39:46.807Z,13.09
2022-11-12T19:42:15.191Z,13.03
2022-11-12T19:44:43.413Z,13.02
2022-11-12T19:47:11.893Z,13.04
2022-11-12T19:49:41.503Z,13.06
2022-11-12T19:52:09.927Z,13.07
2022-11-12T19:54:38.295Z,13.04
2022-11-12T19:57:07.067Z,13.04
2022-11-12T19:59:35.347Z,13.01
2022-11-12T20:02:03.552Z,13.01
2022-11-12T20:04:32.106Z,13.01
2022-11-12T20:07:01.833Z,13.01
2022-11-12T20:09:30.247Z,12.98
2022-11-12T20:11:58.464Z,12.97
2022-11-12T20:14:26.660Z,12.92
2022-11-12T20:16:55.159Z,12.91
2022-11-12T20:19:23.475Z,12.86
2022-11-12T20:21:51.675Z,12.75
2022-11-12T20:24:21.259Z,12.83
2022-11-12T20:26:49.465Z,12.79
2022-11-12T20:29:17.952Z,12.70
2022-11-12T20:31:46.234Z,12.68
2022-11-12T20:34:14.457Z,12.63
2022-11-12T20:36:42.921Z,12.64
2022-11-12T20:39:11.135Z,12.59
2022-11-12T20:41:40.978Z,12.52
2022-11-12T20:44:09.293Z,12.55
2022-11-12T20:46:37.803Z,12.52
2022-11-12T20:49:08.662Z,12.47
2022-11-12T20:51:37.200Z,12.47
2022-11-12T20:54:05.491Z,12.43
2022-11-12T20:56:33.712Z,12.28
2022-11-12T20:59:03.371Z,12.38
2022-11-12T21:01:32.270Z,12.34
2022-11-12T21:04:00.585Z,12.28
2022-11-12T21:06:29.578Z,12.34
2022-11-12T21:08:59.874Z,12.33
2022-11-12T21:11:28.398Z,12.29
2022-11-12T21:13:56.593Z,12.29
2022-11-12T21:16:26.174Z,12.25
2022-11-12T21:18:54.365Z,12.30
2022-11-12T21:21:22.578Z,12.24
2022-11-12T21:23:52.100Z,12.27
2022-11-12T21:26:21.043Z,12.22
2022-11-12T21:28:49.995Z,12.22
2022-11-12T21:31:19.066Z,12.23
2022-11-12T21:33:51.464Z,12.17
2022-11-12T21:36:20.375Z,12.21
2022-11-12T21:38:48.940Z,12.08
2022-11-12T21:41:17.980Z,12.18
2022-11-12T21:43:46.298Z,12.20
2022-11-12T21:46:15.904Z,12.18
2022-11-12T21:48:44.150Z,12.19
2022-11-12T21:51:14.861Z,12.17
2022-11-12T21:53:43.598Z,12.18
2022-11-12T21:56:12.553Z,12.18
2022-11-12T21:58:40.743Z,12.08
2022-11-12T22:01:10.252Z,12.08
2022-11-12T22:03:38.836Z,12.08
2022-11-12T22:06:07.445Z,12.12
2022-11-12T22:08:37.030Z,12.12
2022-11-12T22:11:06.292Z,12.15
2022-11-12T22:13:34.594Z,12.23
2022-11-12T22:16:05.881Z,12.28
2022-11-12T22:18:35.328Z,12.31
2022-11-12T22:21:04.447Z,12.27
2022-11-12T22:23:36.061Z,12.23
2022-11-12T22:26:06.046Z,12.23
2022-11-12T22:28:35.129Z,12.24
2022-11-12T22:31:04.924Z,12.22
2022-11-12T22:33:33.108Z,12.34
2022-11-12T22:36:02.908Z,12.38
2022-11-12T22:38:35.900Z,12.38
2022-11-12T22:41:06.877Z,12.40
2022-11-12T22:43:35.069Z,12.38
2022-11-12T22:46:06.205Z,12.31
2022-11-12T22:48:34.510Z,12.35
2022-11-12T22:51:02.797Z,12.30
2022-11-12T22:53:31.462Z,12.36
2022-11-12T22:56:03.355Z,12.33
2022-11-12T22:58:35.740Z,12.33
2022-11-12T23:01:04.372Z,12.28
2022-11-12T23:03:32.649Z,12.27
2022-11-12T23:06:00.986Z,12.21
2022-11-12T23:08:29.691Z,12.28
2022-11-12T23:10:58.260Z,12.27
2022-11-12T23:13:26.969Z,12.23
2022-11-12T23:15:56.556Z,12.25
2022-11-12T23:18:26.365Z,12.17
2022-11-12T23:20:55.822Z,12.10
2022-11-12T23:23:24.149Z,12.13
2022-11-12T23:25:52.358Z,12.03
2022-11-12T23:28:20.611Z,11.98
2022-11-12T23:30:51.322Z,12.00
2022-11-12T23:33:21.916Z,11.98
2022-11-12T23:35:50.143Z,11.92
2022-11-12T23:38:18.549Z,11.80
2022-11-12T23:40:54.093Z,11.84
2022-11-12T23:43:22.680Z,11.78
2022-11-12T23:45:52.137Z,11.76
2022-11-12T23:48:21.738Z,11.77
2022-11-12T23:50:50.769Z,11.76
2022-11-12T23:53:19.216Z,11.74
2022-11-12T23:55:47.447Z,11.77
2022-11-12T23:58:15.659Z,11.73
